Airfield :
LOGIN :

Register | Disclaimer

   EN    FR    IT 

 










Legend :    VFR   Marginal VFR   IFR   Intensive IFR   Very Intensive IFR
Visi :
Ceiling :
>= 8 km
>= 3000ft
5 to 8 km
1000 to 3000 ft
1500m to 5 km
500 to 1000 ft
800 to 1500m
200 to 500 ft
< 800m
< 200 ft
Symbols :   Thunderstorms  Fog  Heavy snow  Heavy precipitations  Wind > 20 kt
SIGMETs :     Misc.  Thunderstorms  Icing  Turbulence  Mountain Waves  Volcanic Ashes






- Airport Elevation : 375 ft
- IATA code : MST


EHBK - Maastricht Aachen

CURRENT METAR :
  • 100355Z AUTO 24005KT 9999 NCD 02/01 Q1024

EXPIRED METARs :
  • 100325Z AUTO 24004KT 210V270 9999 NSC 02/02 Q1024
  • 100255Z AUTO 25004KT 210V290 9999 NSC 03/02 Q1024
  • 100225Z AUTO 24005KT 9999 NSC 02/01 Q1024
  • 100155Z AUTO 25005KT 220V280 9999 NSC 02/02 Q1023
  • 100125Z AUTO 24005KT 220V280 9999 NCD 02/01 Q1023

TAF TAF EHBK
Valid from the 10 at 00:00 until the 11 at 06:00 UTC


092315Z 1000/1106 27006KT CAVOK
BECMG 1009/1012 21012KT
TEMPO 1012/1015 21015G25KT
BECMG 1015/1018 20020G30KT
TEMPO 1102/1106 4000 RA RADZ BKN013
BECMG 1103/1106 21012KT



MET'MAP, your aeronautical weather chart ! - Copyright ORBIFLY December 2007 - Disclaimer

ORBIFLY MET'MAP TEAM :

Programming & Development : Alexandra Zaïnal
Concept & original design : Baudouin d'Aumeries
Assistance for programming : Marc-Olivier Méhu
Technical & hardware support : Manuel Goepfert

Contact : metmap@orbifly.com




SOURCES & CREDITS :

   NOAA